Time;durP1;ratioP1;P1;durP2;ratioP2;P2;SDS_P1;SDS_P2;PMS_P1;PMS_P2;Temp;Humidity;BMP_temperature;BMP_pressure;BME280_temperature;BME280_humidity;BME280_pressure;Samples;Min_cycle;Max_cycle;Signal;HPM_P1;HPM_P2
2022/07/14 00:01:09;;;;;;;0.60;0.60;;;17.20;99.90;;;;;;5075138;28;20049;-74
2022/07/14 00:03:34;;;;;;;2.17;0.90;;;17.10;99.90;;;;;;5075235;28;20029;-74
2022/07/14 00:06:00;;;;;;;2.53;0.90;;;17.10;99.90;;;;;;5076821;28;20029;-74
2022/07/14 00:08:26;;;;;;;0.80;0.80;;;17.00;99.90;;;;;;5077180;28;20021;-74
2022/07/14 00:10:51;;;;;;;0.80;0.80;;;17.00;99.90;;;;;;5076926;28;20028;-74
2022/07/14 00:13:17;;;;;;;3.55;1.00;;;16.90;99.90;;;;;;5075436;28;20029;-73
2022/07/14 00:15:43;;;;;;;2.38;0.98;;;16.90;99.90;;;;;;5076581;28;20066;-74
2022/07/14 00:18:08;;;;;;;1.33;1.20;;;16.90;99.90;;;;;;5076873;28;20024;-74
2022/07/14 00:20:34;;;;;;;1.30;0.98;;;16.80;99.90;;;;;;5075301;28;20024;-74
2022/07/14 00:23:00;;;;;;;1.58;0.70;;;16.70;99.90;;;;;;5076700;28;20024;-73
2022/07/14 00:25:26;;;;;;;0.95;0.93;;;16.70;99.90;;;;;;5075202;28;20047;-74
2022/07/14 00:27:53;;;;;;;1.52;1.10;;;16.60;99.90;;;;;;5075142;28;20471;-74
2022/07/14 00:30:20;;;;;;;3.10;1.35;;;16.60;99.90;;;;;;5076390;28;20024;-73
2022/07/14 00:32:46;;;;;;;3.80;1.10;;;16.60;99.90;;;;;;5075607;28;20028;-73
2022/07/14 00:35:12;;;;;;;1.63;0.98;;;16.50;99.90;;;;;;5075030;28;20123;-74
2022/07/14 00:37:38;;;;;;;1.23;1.10;;;16.50;99.90;;;;;;5076246;28;20021;-74
2022/07/14 00:40:05;;;;;;;1.90;1.00;;;16.50;99.90;;;;;;5076666;28;20475;-74
2022/07/14 00:42:35;;;;;;;1.98;1.10;;;16.40;99.90;;;;;;5076491;28;20467;-73
2022/07/14 00:45:07;;;;;;;1.48;0.98;;;16.40;99.90;;;;;;5076059;28;20035;-74
2022/07/14 00:47:33;;;;;;;0.55;0.55;;;16.30;99.90;;;;;;5076080;28;20063;-73
2022/07/14 00:49:59;;;;;;;2.72;1.20;;;16.30;99.90;;;;;;5076026;28;20096;-74
2022/07/14 00:52:26;;;;;;;3.50;1.20;;;16.30;99.90;;;;;;5075977;28;20052;-74
2022/07/14 00:54:53;;;;;;;1.13;0.80;;;16.20;99.90;;;;;;5075905;28;20028;-73
2022/07/14 00:57:19;;;;;;;3.42;1.13;;;16.20;99.90;;;;;;5074636;28;20052;-74
2022/07/14 00:59:46;;;;;;;2.40;1.10;;;16.10;99.90;;;;;;5075978;28;20024;-73
2022/07/14 01:02:12;;;;;;;2.80;1.05;;;16.10;99.90;;;;;;5075857;28;20056;-74
2022/07/14 01:04:38;;;;;;;1.77;1.10;;;16.10;99.90;;;;;;5074370;28;20028;-74
2022/07/14 01:07:03;;;;;;;2.13;1.13;;;16.00;99.90;;;;;;5075612;28;20082;-74
2022/07/14 01:09:29;;;;;;;0.90;0.80;;;16.00;99.90;;;;;;5074058;28;20025;-74
2022/07/14 01:11:55;;;;;;;2.88;0.95;;;16.00;99.90;;;;;;5075301;28;20059;-74
2022/07/14 01:14:20;;;;;;;3.15;0.95;;;16.00;99.90;;;;;;5074243;28;20035;-74
2022/07/14 01:16:46;;;;;;;0.82;0.82;;;15.90;99.90;;;;;;5075209;28;20023;-73
2022/07/14 01:19:12;;;;;;;1.63;1.10;;;15.90;99.90;;;;;;5075444;28;20022;-74
2022/07/14 01:21:38;;;;;;;4.20;1.40;;;15.90;99.90;;;;;;5074557;28;20047;-74
2022/07/14 01:24:04;;;;;;;0.90;0.90;;;15.90;99.90;;;;;;5074162;28;20086;-73
2022/07/14 01:26:29;;;;;;;1.25;1.15;;;15.80;99.90;;;;;;5075025;28;20495;-73
2022/07/14 01:28:55;;;;;;;3.05;1.00;;;15.80;99.90;;;;;;5075487;28;20028;-74
2022/07/14 01:31:21;;;;;;;2.20;0.90;;;15.80;99.90;;;;;;5075235;28;20073;-73
2022/07/14 01:33:46;;;;;;;2.47;1.00;;;15.80;99.90;;;;;;5073856;28;20028;-74
2022/07/14 01:36:12;;;;;;;1.48;0.95;;;15.80;99.90;;;;;;5074231;28;20139;-74
2022/07/14 01:38:37;;;;;;;4.85;1.55;;;15.70;99.90;;;;;;5073819;28;20116;-73
2022/07/14 01:41:03;;;;;;;0.70;0.70;;;15.70;99.90;;;;;;5074678;28;20025;-74
2022/07/14 01:43:29;;;;;;;2.80;1.17;;;15.70;99.90;;;;;;5075120;28;20103;-73
2022/07/14 01:45:55;;;;;;;2.28;1.17;;;15.70;99.90;;;;;;5073616;28;20029;-73
2022/07/14 01:48:20;;;;;;;1.05;1.00;;;15.60;99.90;;;;;;5074128;28;20034;-73
2022/07/14 01:50:46;;;;;;;2.47;1.00;;;15.60;99.90;;;;;;5073553;28;20384;-74
2022/07/14 01:53:13;;;;;;;1.88;1.02;;;15.60;99.90;;;;;;5073487;28;20032;-73
2022/07/14 01:55:39;;;;;;;1.17;1.08;;;15.60;99.90;;;;;;5074710;28;20028;-73
2022/07/14 01:58:04;;;;;;;2.67;1.00;;;15.60;99.90;;;;;;5074431;28;20025;-73
2022/07/14 02:00:30;;;;;;;1.08;1.05;;;15.50;99.90;;;;;;5073632;28;20431;-73
2022/07/14 02:02:56;;;;;;;4.05;1.95;;;15.50;99.90;;;;;;5074044;28;20053;-73
2022/07/14 02:05:21;;;;;;;1.50;0.90;;;15.50;99.90;;;;;;5073257;28;20032;-73
2022/07/14 02:07:47;;;;;;;2.08;1.02;;;15.50;99.90;;;;;;5073520;28;20468;-73
2022/07/14 02:12:57;;;;;;;1.05;1.05;;;15.50;99.90;;;;;;5074196;28;20075;-73
2022/07/14 02:15:23;;;;;;;2.05;1.10;;;15.50;99.90;;;;;;5073056;28;20047;-74
2022/07/14 02:17:49;;;;;;;1.45;1.05;;;15.50;99.90;;;;;;5073360;28;20021;-73
2022/07/14 02:20:14;;;;;;;1.80;0.93;;;15.50;99.90;;;;;;5073002;28;20552;-73
2022/07/14 02:22:40;;;;;;;2.75;0.90;;;15.50;99.90;;;;;;5074023;28;20036;-73
2022/07/14 02:25:06;;;;;;;1.27;0.90;;;15.50;99.90;;;;;;5074171;28;20032;-74
2022/07/14 02:27:32;;;;;;;3.30;1.00;;;15.40;99.90;;;;;;5073858;28;20107;-73
2022/07/14 02:29:58;;;;;;;1.65;0.80;;;15.40;99.90;;;;;;5073245;28;20111;-73
2022/07/14 02:32:24;;;;;;;1.02;1.00;;;15.40;99.90;;;;;;5074091;28;20032;-74
2022/07/14 02:34:50;;;;;;;5.15;0.90;;;15.40;99.90;;;;;;5074082;28;20108;-74
2022/07/14 02:37:15;;;;;;;1.25;1.00;;;15.40;99.90;;;;;;5074045;28;20028;-73
2022/07/14 02:39:41;;;;;;;4.30;1.20;;;15.40;99.90;;;;;;5074261;28;20033;-74
2022/07/14 02:42:07;;;;;;;1.17;0.90;;;15.40;99.90;;;;;;5072787;28;20448;-73
2022/07/14 02:44:32;;;;;;;2.08;1.08;;;15.40;99.90;;;;;;5073817;28;20423;-74
2022/07/14 02:46:58;;;;;;;0.82;0.82;;;15.50;99.90;;;;;;5073856;28;20063;-73
2022/07/14 02:49:24;;;;;;;1.20;0.73;;;15.40;99.90;;;;;;5074114;28;20024;-74
2022/07/14 02:51:49;;;;;;;1.92;1.08;;;15.50;99.90;;;;;;5074133;28;20043;-73
2022/07/14 02:54:15;;;;;;;2.15;0.95;;;15.40;99.90;;;;;;5073986;28;20125;-73
2022/07/14 02:56:40;;;;;;;1.02;1.02;;;15.40;99.90;;;;;;5072748;28;20025;-73
2022/07/14 02:59:07;;;;;;;0.85;0.68;;;15.40;99.90;;;;;;5072496;28;20416;-73
2022/07/14 03:01:32;;;;;;;3.47;1.10;;;15.40;99.90;;;;;;5071682;28;20048;-73
2022/07/14 03:03:59;;;;;;;2.45;1.20;;;15.40;99.90;;;;;;5073935;28;20082;-74
2022/07/14 03:06:24;;;;;;;1.17;1.00;;;15.40;99.90;;;;;;5073685;28;20102;-74
2022/07/14 03:08:50;;;;;;;4.65;1.00;;;15.40;99.90;;;;;;5073192;28;20432;-73
2022/07/14 03:11:16;;;;;;;0.80;0.80;;;15.40;99.90;;;;;;5073777;28;20082;-73
2022/07/14 03:13:42;;;;;;;1.00;1.00;;;15.40;99.90;;;;;;5072437;28;20032;-73
2022/07/14 03:16:09;;;;;;;2.95;0.80;;;15.40;99.90;;;;;;5072068;28;20388;-73
2022/07/14 03:18:39;;;;;;;2.80;0.85;;;15.40;99.90;;;;;;5072299;28;20529;-74
2022/07/14 03:21:07;;;;;;;0.82;0.82;;;15.40;99.90;;;;;;5073547;28;20042;-74
2022/07/14 03:23:33;;;;;;;10.63;1.98;;;15.40;99.90;;;;;;5072465;28;20037;-73
2022/07/14 03:25:58;;;;;;;4.47;1.13;;;15.40;99.90;;;;;;5073293;28;20029;-73
2022/07/14 03:28:24;;;;;;;0.68;0.68;;;15.50;99.90;;;;;;5073488;28;20480;-73
2022/07/14 03:30:56;;;;;;;3.83;1.00;;;15.40;99.90;;;;;;5077297;28;20066;-73
2022/07/14 03:33:25;;;;;;;0.73;0.73;;;15.40;99.90;;;;;;5077491;28;20024;-74
2022/07/14 03:35:51;;;;;;;0.88;0.82;;;15.50;99.90;;;;;;5077427;28;20115;-73
2022/07/14 03:38:17;;;;;;;2.95;0.85;;;15.50;99.90;;;;;;5076110;28;20427;-74
2022/07/14 03:40:43;;;;;;;5.82;1.95;;;15.50;99.90;;;;;;5076092;28;20024;-73
2022/07/14 03:43:09;;;;;;;2.85;1.00;;;15.60;99.90;;;;;;5077222;28;20117;-74
2022/07/14 03:45:34;;;;;;;2.30;1.00;;;15.60;99.90;;;;;;5076960;28;20488;-74
2022/07/14 03:48:00;;;;;;;2.20;0.82;;;15.70;99.90;;;;;;5076273;28;20353;-74
2022/07/14 03:50:26;;;;;;;2.80;1.02;;;15.70;99.90;;;;;;5076838;28;20031;-74
2022/07/14 03:52:51;;;;;;;0.95;0.80;;;15.80;99.90;;;;;;5075830;28;20062;-74
2022/07/14 03:55:17;;;;;;;1.00;1.00;;;15.90;99.90;;;;;;5077013;28;20024;-73
2022/07/14 03:57:43;;;;;;;2.25;1.00;;;15.90;99.90;;;;;;5077326;28;20020;-74
2022/07/14 04:00:10;;;;;;;3.83;1.20;;;16.00;99.90;;;;;;5076666;28;20077;-74
2022/07/14 04:02:35;;;;;;;1.25;1.05;;;16.10;99.90;;;;;;5075618;28;20136;-73
2022/07/14 04:05:01;;;;;;;2.30;0.77;;;16.20;99.90;;;;;;5076541;28;20598;-73
2022/07/14 04:07:29;;;;;;;0.70;0.60;;;16.30;99.90;;;;;;5076695;28;20048;-74
2022/07/14 04:09:55;;;;;;;2.70;0.90;;;16.40;99.90;;;;;;5076612;28;20085;-74
2022/07/14 04:12:20;;;;;;;1.23;0.90;;;16.40;99.90;;;;;;5075390;28;20028;-74
2022/07/14 04:14:46;;;;;;;2.30;0.90;;;16.50;99.90;;;;;;5075373;28;20123;-76
2022/07/14 04:17:12;;;;;;;0.70;0.70;;;16.50;99.90;;;;;;5076635;28;20498;-77
2022/07/14 04:19:38;;;;;;;2.25;0.95;;;16.60;99.90;;;;;;5076953;28;20028;-66
2022/07/14 04:22:05;;;;;;;3.13;1.10;;;16.60;99.90;;;;;;5075208;28;20081;-67
2022/07/14 04:24:30;;;;;;;1.02;0.73;;;16.70;99.90;;;;;;5075147;28;20085;-66
2022/07/14 04:26:56;;;;;;;2.70;0.90;;;16.70;99.90;;;;;;5076199;28;20474;-66
2022/07/14 04:29:23;;;;;;;3.75;1.02;;;16.80;99.90;;;;;;5075120;28;20028;-66
2022/07/14 04:31:48;;;;;;;4.85;0.95;;;16.80;99.90;;;;;;5075082;28;20056;-67
2022/07/14 04:34:14;;;;;;;5.70;0.90;;;16.80;99.90;;;;;;5076053;28;20067;-66
2022/07/14 04:36:40;;;;;;;5.22;1.23;;;16.80;99.90;;;;;;5075985;28;20059;-67
2022/07/14 04:39:06;;;;;;;3.42;1.00;;;16.90;99.90;;;;;;5076265;28;20460;-74
2022/07/14 04:41:35;;;;;;;5.10;1.25;;;16.90;99.90;;;;;;5073819;28;20073;-75
2022/07/14 04:44:01;;;;;;;0.73;0.73;;;16.90;99.90;;;;;;5075887;28;20420;-75
2022/07/14 04:46:27;;;;;;;2.28;0.77;;;16.90;99.90;;;;;;5074674;28;20469;-75
2022/07/14 04:54:21;;;;;;;4.80;1.10;;;17.00;99.90;;;;;;5076079;28;20131;-75
2022/07/14 04:56:47;;;;;;;3.25;1.13;;;17.10;99.90;;;;;;5074709;28;20063;-75
2022/07/14 04:59:12;;;;;;;2.83;0.90;;;17.10;99.90;;;;;;5076085;28;20070;-76
2022/07/14 05:01:38;;;;;;;2.22;1.15;;;17.10;99.90;;;;;;5075320;28;20507;-74
2022/07/14 05:04:04;;;;;;;3.42;0.98;;;17.10;99.90;;;;;;5075207;28;20465;-85
2022/07/14 05:06:30;;;;;;;1.58;0.50;;;17.10;99.90;;;;;;5076465;28;20043;-79
2022/07/14 05:08:55;;;;;;;6.68;1.02;;;17.20;99.90;;;;;;5074737;28;20024;-82
2022/07/14 05:11:21;;;;;;;2.55;1.00;;;17.20;99.90;;;;;;5074958;28;20487;-56
2022/07/14 05:13:46;;;;;;;1.33;1.02;;;17.20;99.90;;;;;;5075609;28;20031;-56
2022/07/14 05:16:12;;;;;;;2.47;0.70;;;17.30;99.90;;;;;;5075869;28;20024;-56
2022/07/14 05:18:37;;;;;;;2.40;0.90;;;17.40;99.90;;;;;;5075148;28;20427;-56
2022/07/14 05:21:03;;;;;;;2.05;0.98;;;17.50;99.90;;;;;;5074086;28;20024;-56
2022/07/14 05:23:29;;;;;;;1.35;0.82;;;17.60;99.90;;;;;;5075391;28;20025;-56
2022/07/14 05:25:54;;;;;;;2.58;0.90;;;17.70;99.90;;;;;;5075097;28;20116;-57
2022/07/14 05:28:20;;;;;;;2.72;1.02;;;17.90;99.90;;;;;;5075283;28;20115;-57
2022/07/14 05:30:46;;;;;;;1.30;0.60;;;18.10;99.90;;;;;;5075759;28;20024;-57
2022/07/14 05:33:11;;;;;;;2.75;1.20;;;18.20;99.90;;;;;;5074834;28;20033;-63
2022/07/14 05:35:37;;;;;;;3.20;1.17;;;18.40;99.90;;;;;;5075105;28;20031;-56
2022/07/14 05:38:03;;;;;;;1.98;1.00;;;18.50;99.90;;;;;;5074725;28;20460;-57
2022/07/14 05:40:28;;;;;;;1.45;0.90;;;18.60;99.90;;;;;;5075432;28;20469;-84
2022/07/14 05:42:55;;;;;;;2.60;1.83;;;18.70;99.90;;;;;;5074323;28;20029;-81
2022/07/14 05:45:20;;;;;;;2.00;0.65;;;18.70;99.90;;;;;;5073974;28;20033;-80
2022/07/14 05:47:46;;;;;;;2.58;0.80;;;18.80;99.90;;;;;;5074086;28;20025;-80
2022/07/14 05:50:11;;;;;;;2.70;0.75;;;18.80;99.90;;;;;;5073845;28;20366;-80
2022/07/14 05:52:37;;;;;;;2.38;1.00;;;18.90;99.90;;;;;;5073898;28;20048;-85
2022/07/14 05:55:03;;;;;;;4.65;0.80;;;19.00;99.90;;;;;;5075234;28;20461;-83
2022/07/14 05:57:28;;;;;;;3.17;0.93;;;19.10;99.90;;;;;;5074890;28;20029;-82
2022/07/14 05:59:54;;;;;;;3.70;1.05;;;19.10;99.90;;;;;;5073749;28;20078;-87
2022/07/14 06:02:20;;;;;;;5.25;1.20;;;19.20;99.90;;;;;;5073122;28;20067;-76
2022/07/14 06:04:45;;;;;;;3.20;0.80;;;19.40;99.90;;;;;;5073338;28;20102;-75
2022/07/14 06:07:11;;;;;;;8.43;1.30;;;19.40;99.90;;;;;;5073642;28;20089;-75
2022/07/14 06:09:38;;;;;;;7.20;1.00;;;19.50;99.90;;;;;;5074425;28;20032;-59
2022/07/14 06:12:07;;;;;;;2.47;0.98;;;19.60;99.90;;;;;;5074060;28;20395;-58
2022/07/14 06:14:33;;;;;;;3.45;1.10;;;19.60;99.90;;;;;;5073117;28;20039;-59
2022/07/14 06:16:59;;;;;;;2.28;0.82;;;19.70;99.90;;;;;;5074303;28;20377;-58
2022/07/14 06:19:25;;;;;;;6.25;1.10;;;19.70;99.90;;;;;;5073953;28;20032;-59
2022/07/14 06:21:50;;;;;;;4.63;0.98;;;19.80;99.90;;;;;;5073247;28;20449;-58
2022/07/14 06:24:16;;;;;;;6.85;1.15;;;19.90;99.90;;;;;;5074574;28;20448;-59
2022/07/14 06:26:43;;;;;;;3.28;1.10;;;20.00;99.90;;;;;;5073839;28;20464;-60
2022/07/14 06:29:08;;;;;;;2.78;1.20;;;20.50;99.90;;;;;;5074102;28;20028;-59
2022/07/14 06:31:36;;;;;;;2.60;1.05;;;20.80;99.90;;;;;;5074444;28;20031;-59
2022/07/14 06:34:03;;;;;;;4.82;1.08;;;21.10;99.90;;;;;;5074751;28;20072;-58
2022/07/14 06:36:28;;;;;;;2.17;0.80;;;21.30;99.90;;;;;;5073987;28;20087;-59
2022/07/14 06:38:54;;;;;;;5.22;1.25;;;21.50;99.90;;;;;;5074024;28;20024;-60
2022/07/14 06:41:20;;;;;;;6.97;1.55;;;21.50;99.90;;;;;;5073907;28;20025;-59
2022/07/14 06:43:46;;;;;;;7.65;1.52;;;21.60;99.90;;;;;;5073729;28;20454;-59
2022/07/14 06:46:16;;;;;;;3.28;1.13;;;21.70;99.90;;;;;;5073903;28;20116;-59
2022/07/14 06:48:42;;;;;;;7.82;1.40;;;21.80;99.90;;;;;;5073848;28;20029;-59
2022/07/14 06:51:08;;;;;;;4.53;1.58;;;21.80;99.90;;;;;;5073531;28;20028;-80
2022/07/14 06:53:34;;;;;;;3.75;0.95;;;22.10;99.90;;;;;;5072657;28;20529;-84
2022/07/14 06:55:59;;;;;;;4.15;0.70;;;22.50;99.90;;;;;;5073178;28;20028;-85
2022/07/14 06:58:25;;;;;;;4.88;0.80;;;22.80;99.90;;;;;;5074076;28;20024;-82
2022/07/14 07:00:51;;;;;;;5.90;0.90;;;23.00;99.90;;;;;;5073865;28;20345;-81
2022/07/14 07:03:16;;;;;;;6.10;1.08;;;23.40;99.90;;;;;;5072524;28;20110;-83
2022/07/14 07:08:28;;;;;;;4.43;0.90;;;24.10;99.70;;;;;;5074187;28;20039;-83
2022/07/14 07:10:56;;;;;;;3.78;1.00;;;24.50;98.80;;;;;;5073587;28;20375;-83
2022/07/14 07:13:22;;;;;;;5.30;0.90;;;24.70;96.90;;;;;;5072947;28;20056;-73
2022/07/14 07:15:48;;;;;;;12.00;1.23;;;24.70;96.40;;;;;;5073504;28;20024;-82
2022/07/14 07:18:14;;;;;;;8.48;1.38;;;24.60;96.50;;;;;;5073789;28;20097;-84
2022/07/14 07:20:39;;;;;;;6.32;1.00;;;24.70;96.70;;;;;;5074088;28;20064;-84
2022/07/14 07:23:05;;;;;;;7.35;1.20;;;24.90;96.60;;;;;;5073431;28;20063;-83
2022/07/14 07:25:32;;;;;;;2.53;0.70;;;25.00;96.30;;;;;;5074156;28;20028;-84
2022/07/14 07:27:59;;;;;;;0.85;0.60;;;25.20;95.30;;;;;;5072543;28;20028;-85
2022/07/14 07:30:24;;;;;;;3.85;0.80;;;25.40;94.60;;;;;;5074123;28;20103;-87
2022/07/14 07:32:50;;;;;;;5.00;0.82;;;25.60;93.50;;;;;;5072951;28;20059;-86
2022/07/14 07:35:16;;;;;;;14.13;1.23;;;25.60;92.40;;;;;;5074198;28;20029;-86
2022/07/14 07:37:42;;;;;;;3.80;0.60;;;25.90;93.60;;;;;;5072649;28;20078;-85
2022/07/14 07:40:08;;;;;;;3.22;0.70;;;26.60;93.20;;;;;;5072614;28;20028;-87
2022/07/14 07:42:34;;;;;;;2.75;0.70;;;27.40;91.20;;;;;;5073866;28;20021;-86
2022/07/14 07:45:00;;;;;;;3.33;0.68;;;28.10;87.90;;;;;;5073883;28;20028;-88
2022/07/14 07:47:26;;;;;;;0.70;0.30;;;28.90;80.90;;;;;;5073087;28;20029;-88
2022/07/14 07:49:52;;;;;;;4.97;0.60;;;29.50;69.00;;;;;;5073912;28;20093;-86
2022/07/14 07:52:18;;;;;;;3.30;0.40;;;30.10;69.10;;;;;;5073314;28;20032;-87
2022/07/14 07:54:44;;;;;;;1.65;0.43;;;30.60;60.90;;;;;;5072584;28;20037;-85
2022/07/14 07:57:11;;;;;;;3.78;0.77;;;31.00;56.30;;;;;;5073951;28;20376;-86
2022/07/14 07:59:37;;;;;;;1.75;0.30;;;31.20;56.80;;;;;;5073757;28;20021;-86
2022/07/14 08:02:02;;;;;;;0.47;0.30;;;31.60;54.00;;;;;;5073430;28;20049;-88
2022/07/14 08:04:28;;;;;;;1.48;0.60;;;31.90;50.30;;;;;;5073434;28;20033;-83
2022/07/14 08:06:54;;;;;;;0.80;0.25;;;32.10;46.20;;;;;;5072518;28;20407;-86
2022/07/14 08:09:19;;;;;;;3.55;0.15;;;32.10;44.80;;;;;;5072509;28;20028;-88
2022/07/14 08:11:45;;;;;;;0.35;0.30;;;32.20;43.90;;;;;;5072649;28;20027;-89
2022/07/14 08:16:56;;;;;;;0.90;0.47;;;32.30;42.20;;;;;;5076552;28;20039;-90
2022/07/14 08:19:22;;;;;;;0.20;0.20;;;32.70;42.70;;;;;;5076941;28;20060;-89
2022/07/14 08:21:48;;;;;;;0.35;0.30;;;33.10;41.40;;;;;;5077275;28;20036;-88
2022/07/14 08:24:14;;;;;;;0.43;0.28;;;33.40;41.30;;;;;;5075991;28;20029;-89
2022/07/14 08:26:40;;;;;;;2.40;0.20;;;33.60;39.50;;;;;;5076298;28;20037;-88
2022/07/14 08:29:06;;;;;;;4.72;0.60;;;33.70;39.80;;;;;;5077450;28;20024;-88
2022/07/14 08:31:32;;;;;;;0.57;0.28;;;33.50;39.50;;;;;;5076381;28;20357;-88
2022/07/14 08:33:58;;;;;;;2.17;0.30;;;33.70;38.90;;;;;;5077108;28;20111;-90
2022/07/14 08:36:23;;;;;;;0.65;0.13;;;33.90;38.10;;;;;;5077168;28;20064;-90
2022/07/14 08:38:49;;;;;;;1.58;0.20;;;33.90;38.30;;;;;;5076625;28;20033;-89
2022/07/14 08:41:15;;;;;;;1.75;0.20;;;34.20;36.90;;;;;;5076463;28;20024;-90
2022/07/14 08:43:41;;;;;;;1.00;0.40;;;34.10;36.70;;;;;;5077334;28;20544;-86
2022/07/14 08:46:06;;;;;;;1.45;0.30;;;33.90;37.00;;;;;;5077097;28;20472;-90
2022/07/14 08:48:33;;;;;;;0.70;0.10;;;33.90;37.50;;;;;;5075938;28;20028;-89
2022/07/14 08:51:00;;;;;;;0.45;0.20;;;33.50;37.10;;;;;;5075809;28;20063;-90
2022/07/14 08:53:27;;;;;;;1.85;0.20;;;33.40;37.30;;;;;;5076849;28;20453;-90
2022/07/14 08:55:52;;;;;;;1.38;0.30;;;33.60;37.00;;;;;;5075954;28;20024;-89
2022/07/14 08:58:18;;;;;;;1.42;0.28;;;33.90;36.80;;;;;;5076787;28;20456;-87
2022/07/14 09:00:44;;;;;;;0.50;0.20;;;34.20;35.10;;;;;;5076605;28;20036;-86
2022/07/14 09:03:09;;;;;;;0.20;0.20;;;33.90;35.80;;;;;;5077046;28;20099;-88
2022/07/14 09:05:41;;;;;;;0.28;0.28;;;34.10;36.30;;;;;;5077012;28;20029;-89
2022/07/14 09:08:07;;;;;;;2.38;0.38;;;34.00;36.00;;;;;;5075836;28;20162;-89
2022/07/14 09:10:33;;;;;;;0.80;0.47;;;34.10;36.20;;;;;;5076706;28;20062;-90
2022/07/14 09:13:19;;;;;;;1.50;0.25;;;34.30;36.30;;;;;;5076005;28;20047;-90
2022/07/14 09:15:46;;;;;;;1.45;0.30;;;34.80;36.00;;;;;;5076715;28;20021;-90
2022/07/14 09:18:23;;;;;;;0.82;0.30;;;34.90;34.40;;;;;;5076319;28;20032;-90
2022/07/14 09:20:52;;;;;;;0.30;0.30;;;34.90;33.90;;;;;;5075321;28;20028;-89
2022/07/14 09:23:30;;;;;;;1.30;0.30;;;34.70;33.80;;;;;;5076276;28;20082;-90
2022/07/14 09:26:18;;;;;;;1.65;0.20;;;34.80;34.50;;;;;;5076451;28;20032;-90
2022/07/14 09:28:47;;;;;;;0.80;0.28;;;34.40;34.00;;;;;;5075942;28;20033;-90
2022/07/14 09:31:24;;;;;;;1.85;0.10;;;34.20;34.00;;;;;;5076402;28;20020;-91
2022/07/14 09:33:57;;;;;;;3.03;0.47;;;34.10;33.70;;;;;;5076470;28;20029;-88
2022/07/14 09:36:28;;;;;;;0.20;0.20;;;34.30;34.00;;;;;;5075805;28;20032;-90
2022/07/14 09:39:06;;;;;;;2.70;0.35;;;34.40;33.70;;;;;;5075947;28;20021;-89
2022/07/14 09:41:48;;;;;;;1.55;0.30;;;34.40;32.70;;;;;;5076442;28;20032;-87
2022/07/14 09:44:17;;;;;;;0.68;0.30;;;34.80;33.10;;;;;;5075596;28;20033;-89
2022/07/14 09:46:49;;;;;;;2.33;0.20;;;35.30;33.00;;;;;;5074646;28;20039;-85
2022/07/14 09:49:17;;;;;;;0.40;0.20;;;35.50;32.50;;;;;;5074652;28;20078;-89
2022/07/14 09:52:04;;;;;;;0.47;0.20;;;35.50;32.60;;;;;;5074434;28;20370;-85
2022/07/14 09:54:38;;;;;;;0.52;0.52;;;35.40;32.70;;;;;;5075387;28;20108;-88
2022/07/14 09:57:13;;;;;;;2.30;0.20;;;35.60;32.00;;;;;;5075553;28;20020;-86
2022/07/14 09:59:47;;;;;;;2.90;0.28;;;35.60;31.70;;;;;;5075308;28;20055;-86
2022/07/14 10:02:27;;;;;;;0.40;0.30;;;35.60;32.20;;;;;;5074734;28;20131;-86
2022/07/14 10:05:07;;;;;;;0.73;0.30;;;35.70;31.90;;;;;;5075096;28;20074;-86
2022/07/14 10:07:38;;;;;;;1.67;0.20;;;35.70;32.10;;;;;;5073732;28;20033;-84
2022/07/14 10:10:12;;;;;;;0.80;0.30;;;35.60;31.20;;;;;;5074067;28;20035;-86
2022/07/14 10:12:41;;;;;;;1.98;0.28;;;35.70;32.00;;;;;;5074724;28;20024;-85
2022/07/14 10:15:11;;;;;;;1.25;0.30;;;36.20;31.10;;;;;;5073475;28;20032;-84
2022/07/14 10:17:39;;;;;;;0.43;0.25;;;36.20;31.70;;;;;;5073763;28;20025;-82
2022/07/14 10:20:07;;;;;;;0.20;0.20;;;36.10;31.90;;;;;;5073444;28;20067;-83
2022/07/14 10:22:34;;;;;;;1.13;0.52;;;35.60;31.70;;;;;;5074620;28;20024;-84
2022/07/14 10:25:02;;;;;;;1.58;0.30;;;34.80;32.90;;;;;;5073240;28;20453;-82
2022/07/14 10:27:29;;;;;;;3.40;0.40;;;34.50;34.00;;;;;;5073065;28;20033;-82
2022/07/14 10:29:56;;;;;;;1.08;0.28;;;34.50;34.10;;;;;;5073028;28;20070;-85
2022/07/14 10:32:34;;;;;;;0.75;0.30;;;34.80;34.20;;;;;;5074250;28;20032;-85
2022/07/14 10:35:26;;;;;;;1.30;0.30;;;35.40;33.80;;;;;;5072951;28;20028;-81
2022/07/14 10:38:04;;;;;;;1.05;0.17;;;36.20;33.30;;;;;;5073848;28;20028;-82
2022/07/14 10:40:46;;;;;;;1.08;0.30;;;36.20;32.70;;;;;;5074046;28;20027;-82
2022/07/14 10:43:56;;;;;;;1.30;0.28;;;36.40;32.90;;;;;;5073397;28;20032;-81
2022/07/14 10:46:34;;;;;;;3.15;0.28;;;36.90;32.10;;;;;;5073210;28;20438;-83
2022/07/14 10:49:01;;;;;;;3.80;0.70;;;37.20;31.60;;;;;;5073217;28;20029;-83
2022/07/14 10:51:28;;;;;;;0.75;0.20;;;37.10;31.90;;;;;;5074488;28;20082;-87
2022/07/14 10:54:16;;;;;;;2.67;0.25;;;37.00;30.50;;;;;;5074076;28;20033;-85
2022/07/14 10:56:45;;;;;;;2.05;0.17;;;37.40;31.00;;;;;;5072952;28;20056;-79
2022/07/14 10:59:26;;;;;;;1.48;0.32;;;37.60;30.40;;;;;;5074250;28;20016;-84
2022/07/14 11:02:13;;;;;;;0.22;0.20;;;37.20;30.20;;;;;;5074708;28;20044;-80
2022/07/14 11:07:46;;;;;;;3.10;0.38;;;37.30;30.80;;;;;;5074510;28;20493;-87
2022/07/14 11:10:18;;;;;;;3.08;1.30;;;37.50;30.60;;;;;;5073837;28;20431;-79
2022/07/14 11:12:59;;;;;;;0.75;0.30;;;37.50;30.60;;;;;;5072947;28;20024;-80
2022/07/14 11:15:46;;;;;;;2.67;0.30;;;37.10;31.50;;;;;;5072415;28;20035;-84
2022/07/14 11:18:17;;;;;;;0.30;0.30;;;36.10;32.30;;;;;;5074064;28;20369;-81
2022/07/14 11:21:12;;;;;;;2.10;0.20;;;35.50;33.00;;;;;;5074169;28;20106;-77
2022/07/14 11:23:51;;;;;;;4.30;0.40;;;34.80;32.80;;;;;;5072993;28;20087;-77
2022/07/14 11:26:32;;;;;;;2.83;0.40;;;34.50;32.90;;;;;;5072914;28;20494;-80
2022/07/14 11:29:00;;;;;;;1.83;0.30;;;34.60;33.50;;;;;;5073516;28;20056;-78
2022/07/14 11:31:26;;;;;;;0.25;0.20;;;35.40;32.80;;;;;;5072480;28;20029;-82
2022/07/14 11:37:00;;;;;;;3.63;0.20;;;36.20;31.90;;;;;;5073699;28;20392;-80
2022/07/14 11:39:37;;;;;;;0.45;0.30;;;36.20;31.10;;;;;;5071885;28;20024;-76
2022/07/14 11:42:08;;;;;;;1.27;0.40;;;35.60;30.80;;;;;;5073275;28;20039;-80
2022/07/14 11:44:38;;;;;;;3.17;0.45;;;35.60;31.50;;;;;;5071955;28;20035;-79
2022/07/14 11:47:24;;;;;;;2.58;0.22;;;35.70;31.80;;;;;;5073324;28;20051;-77
2022/07/14 11:49:53;;;;;;;0.17;0.15;;;36.00;31.80;;;;;;5072238;28;20040;-82
2022/07/14 11:52:31;;;;;;;0.15;0.15;;;35.80;32.20;;;;;;5077222;28;20024;-82
2022/07/14 11:54:58;;;;;;;0.28;0.13;;;36.10;31.60;;;;;;5076267;28;20033;-80
2022/07/14 11:57:24;;;;;;;1.80;0.17;;;36.90;31.40;;;;;;5075516;28;20033;-80
2022/07/14 11:59:50;;;;;;;1.83;0.25;;;37.70;30.90;;;;;;5077195;28;20028;-73
2022/07/14 12:02:20;;;;;;;1.85;0.28;;;38.50;30.00;;;;;;5077008;28;20048;-79
2022/07/14 12:04:53;;;;;;;2.38;0.40;;;38.90;28.80;;;;;;5075627;28;20451;-78
2022/07/14 12:07:20;;;;;;;0.30;0.30;;;38.80;29.00;;;;;;5075582;28;20028;-79
2022/07/14 12:09:47;;;;;;;2.50;0.30;;;38.70;28.90;;;;;;5076886;28;20158;-80
2022/07/14 12:12:15;;;;;;;0.65;0.32;;;38.30;28.30;;;;;;5076796;28;20052;-79
2022/07/14 12:14:49;;;;;;;0.55;0.40;;;38.50;29.20;;;;;;5075468;28;20028;-81
2022/07/14 12:17:17;;;;;;;0.30;0.30;;;38.40;29.00;;;;;;5075437;28;20029;-80
2022/07/14 12:19:43;;;;;;;3.00;0.30;;;38.50;29.10;;;;;;5076639;28;20138;-79
2022/07/14 12:22:09;;;;;;;0.40;0.30;;;38.70;29.50;;;;;;5075292;28;20020;-79
2022/07/14 12:24:35;;;;;;;3.22;0.30;;;38.70;29.60;;;;;;5075211;28;20055;-79
2022/07/14 12:27:04;;;;;;;2.22;0.30;;;39.20;29.40;;;;;;5075522;28;20032;-80
2022/07/14 12:29:31;;;;;;;0.95;0.30;;;39.00;29.40;;;;;;5076395;28;20021;-80
2022/07/14 12:31:58;;;;;;;0.30;0.30;;;39.10;29.00;;;;;;5076189;28;20384;-81
2022/07/14 12:34:26;;;;;;;0.90;0.30;;;39.50;29.20;;;;;;5074847;28;20059;-83
2022/07/14 12:36:54;;;;;;;0.50;0.25;;;40.00;29.20;;;;;;5076496;28;20085;-81
2022/07/14 12:39:19;;;;;;;0.52;0.40;;;39.90;28.70;;;;;;5076474;28;20107;-80
2022/07/14 12:41:46;;;;;;;3.30;0.40;;;39.30;29.10;;;;;;5075064;28;20059;-81
2022/07/14 12:44:12;;;;;;;0.30;0.30;;;39.30;29.10;;;;;;5076314;28;20028;-82
2022/07/14 12:46:38;;;;;;;2.15;0.40;;;38.60;29.40;;;;;;5075746;28;20036;-82
2022/07/14 12:49:06;;;;;;;5.68;0.90;;;38.40;29.80;;;;;;5076547;28;20369;-75
2022/07/14 12:51:44;;;;;;;0.25;0.25;;;38.00;29.90;;;;;;5074848;28;20029;-81
2022/07/14 12:54:17;;;;;;;1.15;0.45;;;38.30;30.00;;;;;;5074824;28;20499;-80
2022/07/14 12:56:53;;;;;;;2.67;0.43;;;38.60;30.50;;;;;;5075948;28;20056;-78
2022/07/14 12:59:20;;;;;;;4.75;0.30;;;39.00;29.80;;;;;;5075937;28;20020;-78
2022/07/14 13:02:09;;;;;;;2.88;0.30;;;38.90;29.60;;;;;;5075101;28;20484;-78
2022/07/14 13:04:49;;;;;;;0.28;0.20;;;39.30;30.30;;;;;;5074635;28;20396;-81
2022/07/14 13:07:18;;;;;;;0.52;0.40;;;39.50;29.40;;;;;;5074467;28;20036;-79
2022/07/14 13:10:26;;;;;;;5.25;0.40;;;40.00;29.20;;;;;;5074451;28;20465;-79